Weather observations for the past three days for
Point Thomson Airstrip
Imperial (Metric)
Date Time (akdt) Wind (mph) Vis. (mi.) Weather Sky Cond. Temperature (ºF) Relative Humidity Wind Chill (°F) Heat Index (°F) Pressure Precipitation (in)
Air Dwpt 6 hour altimeter (in) sea level (mb) 1 hr 3 hr 6 hr
Max. Min.
04 11:15 E 12 3.00 Fog/Mist OVC044 24.1 22.1 92% 14 30.15 0.0
04 10:55 E 10 3.00 Fog/Mist OVC046 23.9 21.9 92% 14 30.16 0.0
04 10:35 E 10 1.50 Light Snow SCT004 SCT011 OVC048 23.5 21.7 93% 14 30.16 0.0
04 10:15 E 9 1.50 Light Snow SCT004 SCT011 OVC050 23.4 21.7 94% 14 30.16 0.0
04 09:55 NE 9 2.50 Light Snow SCT004 SCT009 OVC050 23.4 21.9 25.2 22.8 94% 14 30.16 0.0
04 09:35 E 10 2.50 Light Snow OVC004 23.4 22.1 95% 14 30.16 0.0
04 09:15 E 10 1.50 Light Snow OVC004 23.4 22.1 95% 14 30.16 0.0
04 08:55 NE 12 1.50 Light Snow OVC004 23.4 22.1 95% 13 30.16 0.0
04 08:35 NE 10 1.75 Light Snow OVC004 23.2 22.1 96% 13 30.16 0.0
04 08:15 NE 8 2.00 Light Snow BKN004 OVC008 23 22.1 96% 15 30.16 0.0
04 07:55 NE 8 1.50 Light Snow OVC008 22.8 21.7 96% 14 30.16 0.0
04 07:35 NE 8 2.00 Light Snow SCT004 BKN008 OVC050 22.8 21.7 96% 14 30.16 0.0
04 07:15 NE 9 1.25 Light Snow SCT004 BKN048 OVC060 23 22.1 96% 14 30.16 0.0
04 06:55 NE 9 2.50 Light Snow SCT050 OVC060 23 22.5 98% 14 30.16 0.0
04 06:35 NE 9 1.50 Light Snow SCT002 BKN048 OVC060 23.4 22.6 97% 14 30.16 0.0
04 06:15 NE 10 0.75 Light Snow OVC002 23.7 23 97% 14 30.16 0.0
04 05:55 NE 9 0.75 Snow OVC002 23.9 23.4 98% 15 30.16 0.0
04 05:35 NE 7 0.75 Light Snow OVC002 24.8 24.4 99% 18 30.16 0.0
04 05:15 NE 7 3.00 Light Snow OVC002 24.6 24.3 99% 17 30.15 0.0
04 04:55 NE 7 2.50 Fog/Mist OVC002 24.6 24.3 99% 17 30.15 0.0
04 04:35 NE 7 1.75 Light Snow OVC002 24.8 24.4 99% 18 30.15 0.0
04 04:15 NE 7 2.50 Light Snow OVC004 24.8 24.4 99% 18 30.15 0.0
04 03:55 NE 8 5.00 Light Snow OVC004 25.2 24.3 29.3 25.2 96% 17 30.15 0.0
04 03:35 N 8 7.00 Overcast OVC006 25.3 24.3 96% 17 30.15 0.0
04 03:15 N 7 10.00 Overcast SCT006 OVC050 25.7 24.6 96% 19 30.15 0.0
04 02:55 N 6 10.00 Overcast SCT006 OVC050 25.7 24.8 96% 20 30.15 0.0
04 02:35 N 6 10.00 Overcast BKN055 OVC065 26.1 24.8 95% 20 30.14 0.0
04 02:15 N 7 10.00 Overcast OVC055 26.6 25.3 95% 20 30.14 0.0
04 01:55 N 8 10.00 Overcast SCT050 OVC065 26.6 25.3 95% 19 30.14 0.0
04 01:35 N 7 10.00 Overcast OVC050 27.1 25.7 94% 20 30.14 0.0
04 01:15 N 5 10.00 Light Snow SCT005 OVC050 27.3 26.1 95% 23 30.14 0.0
04 00:55 NW 10 10.00 Overcast OVC050 27.5 26.6 96% 19 30.13 0.0
04 00:35 NW 8 10.00 Overcast OVC050 27.9 26.6 95% 21 30.13 0.0
04 00:15 NW 7 10.00 Overcast OVC050 27.9 26.4 94% 21 30.13 0.0
03 23:55 NW 7 10.00 Overcast SCT007 SCT044 OVC050 28.4 26.6 93% 22 30.13 0.0
03 23:35 NW 7 10.00 Overcast BKN007 OVC060 28.4 26.6 93% 22 30.13 0.0
03 23:15 NW 10 10.00 Overcast OVC007 28.8 27 93% 20 30.12 0.0
03 22:55 W 12 10.00 Overcast OVC007 28.9 27.5 94% 20 30.12 0.0
03 22:15 NW 12 10.00 Overcast OVC007 29.3 27.5 93% 20 30.11 0.0
03 21:55 NW 10 10.00 Overcast OVC007 29.3 27.5 32 29.3 93% 21 30.1 0.0
03 21:35 W 12 10.00 Overcast OVC007 29.3 27.9 94% 20 30.1 0.0
03 21:15 W 14 7.00 Overcast OVC005 29.7 28.4 95% 20 30.09 0.0
03 20:55 W 13 7.00 Overcast OVC005 29.5 28.4 96% 20 30.09 0.0
03 20:35 W 13 7.00 Overcast OVC005 29.3 28.2 96% 20 30.09 0.0
03 20:15 W 13 10.00 Overcast OVC005 29.3 28.2 96% 20 30.08 0.0
03 19:55 W 9 10.00 Overcast OVC005 29.5 28.4 96% 22 30.08 0.0
03 19:35 W 15 10.00 Overcast OVC005 29.8 28.4 94% 20 30.07 0.0
03 19:15 W 14 10.00 Overcast OVC005 30 28.6 94% 20 30.06 0.0
03 18:55 W 15 10.00 Overcast OVC005 30 28.4 94% 20 30.06 0.0
03 18:35 W 12 10.00 Overcast OVC005 30.2 28.6 94% 21 30.05 0.0
03 18:15 W 12 10.00 Overcast OVC005 30.2 28.8 94% 21 30.04 0.0
03 17:55 W 20 10.00 Overcast OVC007 30.9 29.3 94% 20 30.02 0.0
03 17:35 W 22 10.00 Overcast and Breezy SCT007 OVC075 31.5 29.7 93% 20 30.01 0.0
03 17:15 W 17 10.00 Overcast OVC075 31.6 29.8 93% 21 30.01 0.0
03 16:55 W 17 10.00 Overcast OVC075 31.8 29.8 92% 21 30.01 0.0
03 16:35 W 16 10.00 Overcast SCT010 OVC075 32 30 92% 22 30.01 0.0
03 16:15 W 15 10.00 Overcast OVC085 32 30 92% 22 30 0.0
03 15:55 W 13 10.00 Overcast OVC085 32 30 33.3 31.6 92% 23 30 0.0
03 15:35 W 15 10.00 Overcast SCT008 OVC085 32 30.2 93% 22 29.99 0.0
03 15:15 W 15 10.00 Overcast BKN008 OVC085 32 30.2 93% 22 29.98 0.0
03 14:55 W 15 10.00 Overcast BKN008 OVC085 32 30.2 93% 22 29.98 0.0
03 14:35 W 18 10.00 Overcast SCT008 OVC095 32.9 30.6 91% 22 29.97 0.0
03 14:15 W 15 10.00 Overcast SCT070 OVC095 32.9 30.4 90% 23 29.97 0.0
03 13:55 W 14 10.00 Overcast SCT046 SCT060 OVC070 32.7 30.2 90% 24 29.96 0.0
03 13:35 W 15 10.00 Overcast SCT046 BKN075 OVC090 32.9 30.2 90% 23 29.95 0.0
03 13:15 W 13 10.00 Overcast BKN049 BKN075 OVC090 33.3 30.2 89% 25 29.94 0.0
03 12:55 W 12 10.00 Mostly Cloudy BKN049 BKN095 32.2 30.6 94% 24 29.93 0.0
03 12:35 SW 13 10.00 Partly Cloudy SCT090 32 30.4 94% 23 29.93 0.0
03 12:15 W 9 10.00 Partly Cloudy SCT090 32.4 30.6 93% 25 29.92 0.0
03 11:55 W 9 10.00 Fair CLR 33.1 30.9 92% 26 29.91 0.0
03 11:35 W 9 10.00 Fair CLR 32.5 30.6 92% 26 29.9 0.0
03 11:15 SW 10 10.00 Fair CLR 32.5 30.6 92% 25 29.89 0.0
03 10:55 W 10 10.00 Mostly Cloudy BKN085 32.7 30.6 92% 25 29.88 0.0
03 10:35 W 8 10.00 Mostly Cloudy BKN085 32 30.2 93% 25 29.88 0.0
03 10:15 W 7 10.00 Mostly Cloudy BKN075 32 30 92% 26 29.88 0.0
03 09:55 W 5 10.00 Overcast BKN070 OVC085 31.8 29.3 32 25.3 90% 28 29.87 0.0
03 09:35 SW 5 10.00 Overcast OVC070 30.6 28.6 92% 26 29.87 0.0
03 09:15 Calm 10.00 Overcast OVC070 29.7 27.5 92% 29.86 0.0
03 08:55 Calm 10.00 Overcast OVC070 29.5 27.9 94% 29.86 0.0
03 08:35 S 3 10.00 Overcast OVC070 28.4 27.1 95% 29.86 0.0
03 08:15 S 3 10.00 Overcast OVC070 27.5 25.9 94% 29.85 0.0
03 07:55 S 3 10.00 Overcast SCT070 OVC100 26.8 25.5 95% 29.85 0.0
03 07:35 S 5 10.00 Mostly Cloudy BKN090 BKN120 25.7 24.8 96% 21 29.85 0.0
03 07:15 S 3 7.00 Overcast OVC090 26.1 24.8 95% 29.84 0.0
03 06:55 S 3 7.00 Overcast OVC090 25.9 24.8 96% 29.84 0.0
03 06:35 S 6 7.00 Overcast OVC100 25.3 23.9 94% 19 29.84 0.0
03 06:15 S 5 7.00 Overcast SCT018 SCT050 OVC110 25.3 24.1 95% 20 29.84 0.0
03 05:55 S 5 7.00 Overcast OVC018 25.7 24.4 95% 21 29.84 0.0
03 05:35 S 3 7.00 Overcast OVC018 25.5 24.4 96% 29.83 0.0
03 05:15 S 3 5.00 Fog/Mist OVC020 25.5 24.4 96% 29.83 0.0
03 04:55 S 5 5.00 Fog/Mist BKN022 BKN050 OVC080 25.3 24.3 96% 20 29.83 0.0
03 04:35 Calm 5.00 Fog/Mist BKN017 BKN025 OVC090 25.7 24.6 96% 29.82 0.0
03 04:15 Calm 5.00 Fog/Mist OVC017 25.3 24.3 96% 29.82 0.0
03 03:55 W 3 5.00 Fog/Mist OVC017 25.7 24.6 27.3 24.4 96% 29.82 0.0
03 03:35 W 5 7.00 Overcast OVC017 25.7 24.6 96% 21 29.81 0.0
03 03:15 W 7 7.00 Overcast OVC017 25.7 24.4 95% 19 29.81 0.0
03 02:55 W 7 7.00 Overcast OVC021 26.2 24.8 94% 19 29.8 0.0
03 02:35 W 8 7.00 Overcast OVC019 26.2 25.3 96% 19 29.79 0.0
03 02:15 W 7 7.00 Overcast OVC017 25.7 24.8 96% 19 29.79 0.0
03 01:55 W 7 7.00 Overcast OVC017 25.3 24.4 96% 18 29.79 0.0
03 01:35 W 8 7.00 Overcast BKN021 BKN075 OVC120 24.4 23.5 96% 16 29.79 0.0
03 01:15 W 9 7.00 Overcast BKN090 OVC120 24.8 23.9 96% 16 29.78 0.0
03 00:55 W 9 7.00 Overcast OVC080 25.2 24.1 96% 17 29.77 0.0
03 00:35 W 9 7.00 Overcast SCT029 SCT034 OVC080 25.7 24.8 96% 17 29.77 0.0
03 00:15 W 9 7.00 Overcast BKN029 OVC034 26.6 25.3 95% 18 29.76 0.0
02 23:55 W 12 7.00 Overcast OVC029 27.3 26.2 96% 18 29.76 0.0
02 23:35 W 9 7.00 Overcast OVC029 27.1 26.2 96% 19 29.75 0.0
02 23:15 W 7 4.00 Light Snow SCT026 BKN033 OVC090 26.4 25.5 96% 20 29.74 0.0
02 22:55 W 7 4.00 Light Snow SCT031 BKN060 OVC080 26.4 25.3 96% 20 29.74 0.0
02 22:35 W 9 4.00 Light Snow BKN041 OVC050 26.6 25.5 96% 18 29.73 0.0
02 22:15 W 8 3.00 Light Snow SCT026 BKN039 OVC080 27 26.1 96% 19 29.73 0.0
02 21:55 W 8 2.50 Light Snow SCT032 BKN065 OVC085 27 25.9 28.9 27 96% 19 29.72 0.0
02 21:35 W 8 5.00 Light Snow SCT032 BKN055 OVC095 27.1 26.1 96% 20 29.71 0.0
02 21:15 W 8 5.00 Fog/Mist SCT055 BKN070 OVC095 27.1 26.1 96% 20 29.7 0.0
02 20:55 W 8 5.00 Fog/Mist SCT060 OVC075 27.3 26.4 96% 20 29.69 0.0
02 20:35 W 7 7.00 Overcast BKN060 OVC070 27.5 26.6 96% 21 29.69 0.0
02 20:15 W 6 7.00 Overcast SCT060 BKN070 OVC085 27.5 26.6 96% 22 29.68 0.0
02 19:55 NW 5 7.00 Overcast SCT060 BKN070 OVC090 27.9 26.6 95% 23 29.67 0.0
02 19:35 NW 3 5.00 Fog/Mist SCT060 BKN070 OVC080 28.2 27.1 96% 29.67 0.0
02 19:15 W 3 4.00 Light Snow SCT032 BKN090 OVC110 28.2 27 95% 29.66 0.0
02 18:55 SW 3 2.00 Light Snow SCT026 BKN032 OVC044 28.2 26.6 94% 29.66 0.0
02 18:35 SW 3 4.00 Light Snow BKN026 BKN032 OVC047 28 26.2 93% 29.65 0.0
02 18:15 SW 5 4.00 Light Snow BKN029 BKN040 OVC047 28 26.2 93% 24 29.65 0.0
02 17:55 Calm 5.00 Light Snow SCT005 BKN030 OVC046 28 26.2 93% 29.64 0.0
02 17:35 Calm 3.00 Light Snow BKN030 BKN036 OVC055 28.4 26.4 92% 29.64 0.0
02 17:15 Calm 10.00 Light Rain SCT028 BKN038 OVC065 28.8 26.4 91% 29.63 0.0
02 16:55 SE 3 10.00 Light Rain SCT029 BKN042 OVC080 28.4 26.4 92% 29.62 0.0
02 16:35 SE 5 10.00 Light Rain SCT013 BKN045 OVC080 28 26.1 92% 24 29.61 0.0
02 16:15 E 6 10.00 Light Rain BKN028 OVC037 27.5 25.7 93% 22 29.61 0.0
02 15:55 E 6 10.00 Light Rain SCT032 BKN043 OVC100 27.3 25 27.5 23.2 91% 22 29.6 0.0
02 15:35 E 7 7.00 Light Rain SCT028 SCT065 OVC100 27.3 25 91% 21 29.59 0.0
02 15:15 E 7 7.00 Overcast SCT005 SCT038 OVC100 26.8 24.6 92% 20 29.59 0.0
02 14:55 E 8 5.00 Fog/Mist SCT005 BKN055 OVC100 26.6 24.4 92% 19 29.58 0.0
02 14:35 E 8 7.00 Overcast SCT007 BKN050 OVC100 26.4 23.9 90% 19 29.58 0.0
02 14:15 E 8 7.00 Overcast BKN007 BKN045 OVC100 26.1 23.7 91% 18 29.57 0.0
02 13:55 E 7 7.00 Overcast OVC007 25.7 23.5 92% 19 29.57 0.0
02 13:35 E 8 7.00 Overcast OVC007 25.7 23.2 90% 18 29.56 0.0
02 13:15 E 9 7.00 Overcast OVC007 25.5 23 90% 17 29.56 0.0
02 12:55 E 8 7.00 Overcast OVC007 25.3 22.8 90% 17 29.55 0.0
02 12:35 E 9 7.00 Overcast OVC007 25.2 22.8 91% 17 29.55 0.0
02 12:15 E 8 7.00 Overcast OVC007 25 22.6 91% 17 29.54 0.0
02 11:55 E 8 7.00 Overcast OVC007 25.2 22.6 90% 17 29.54 0.0
02 11:35 E 10 7.00 Overcast OVC007 24.4 22.1 91% 15 29.53 0.0
02 11:15 E 13 7.00 Overcast OVC007 24.3 22.1 91% 14 29.52 0.0
02 10:55 E 13 7.00 Overcast OVC007 23.9 21.9 92% 13 29.51 0.0
02 10:35 E 13 7.00 Overcast OVC007 23.7 21.9 93% 13 29.51 0.0
02 10:15 E 12 7.00 Overcast OVC007 23.7 21.7 92% 13 29.5 0.0
02 09:55 E 13 7.00 Overcast OVC007 23 21.6 23 21 94% 12 29.5 0.0
02 09:35 E 13 7.00 Overcast OVC007 22.8 21.2 93% 12 29.5 0.0
02 09:15 E 13 7.00 Overcast OVC005 22.5 21 94% 11 29.5 0.0
02 08:55 E 13 7.00 Overcast OVC005 22.1 21 96% 11 29.5 0.0
02 08:35 E 13 7.00 Overcast OVC005 22.1 20.8 95% 11 29.49 0.0
02 08:15 E 14 7.00 Overcast OVC005 21.9 20.7 95% 10 29.49 0.0
02 07:55 E 15 7.00 Overcast OVC005 21.7 20.3 94% 9 29.48 0.0
02 07:35 E 15 7.00 Overcast OVC005 21.7 20.3 94% 9 29.48 0.0
02 07:15 E 18 7.00 Overcast OVC005 21.7 20.3 94% 8 29.48 0.0
02 06:55 E 18 7.00 Overcast OVC005 21.6 20.3 95% 8 29.48 0.0
02 06:35 E 17 7.00 Overcast OVC005 21.4 20.3 96% 8 29.49 0.0
02 06:15 E 18 5.00 Fog/Mist OVC005 21.2 20.3 96% 7 29.48 0.0
02 05:55 E 20 7.00 Overcast OVC005 21.2 20.3 96% 7 29.49 0.0
02 05:35 E 20 5.00 Fog/Mist OVC005 21.2 20.1 96% 7 29.49 0.0
02 05:15 E 20 7.00 Overcast OVC005 21 19.9 96% 7 29.49 0.0
02 04:55 E 18 5.00 Fog/Mist OVC005 21.2 20.1 96% 7 29.49 0.0
02 04:35 E 18 5.00 Fog/Mist OVC005 21 20.1 96% 7 29.5 0.0
02 04:15 E 21 4.00 Fog/Mist and Breezy OVC005 21.2 20.3 96% 7 29.49 0.0
02 03:55 E 20 3.00 Fog/Mist OVC005 21.2 20.3 21.7 20.3 96% 7 29.5 0.0
02 03:35 E 22 5.00 Fog/Mist and Breezy OVC005 21.2 20.3 96% 6 29.5 0.0
02 03:15 E 22 5.00 Fog/Mist and Breezy OVC005 21.2 20.3 96% 6 29.51 0.0
02 02:55 E 24 4.00 Fog/Mist and Breezy OVC005 21.6 20.3 95% 6 29.51 0.0
02 02:35 E 25 2.00 Fog/Mist and Breezy OVC005 21.7 20.8 96% 6 29.51 0.0
02 02:15 E 23 G 30 1.75 Fog/Mist and Breezy OVC005 21.6 20.5 96% 6 29.51 0.0
02 01:55 E 25 1.75 Fog/Mist and Breezy OVC005 21.6 20.5 96% 6 29.52 0.0
02 01:35 E 23 2.00 Fog/Mist and Breezy OVC005 21.7 20.8 96% 7 29.53 0.0
02 01:15 E 25 1.75 Fog/Mist and Breezy OVC005 21.7 20.8 96% 6 29.53 0.0
02 00:55 E 23 2.00 Fog/Mist and Breezy OVC005 21.7 20.8 96% 7 29.53 0.0
02 00:35 E 24 2.50 Fog/Mist and Breezy OVC005 21.7 20.8 96% 6 29.54 0.0
02 00:15 E 23 2.50 Fog/Mist and Breezy OVC005 21.7 20.8 96% 7 29.54 0.0
01 23:55 E 25 2.00 Fog/Mist and Breezy OVC005 21.6 20.3 95% 6 29.55 0.0
01 23:35 E 24 1.25 Fog/Mist and Breezy OVC005 21.2 20.3 96% 5 29.56 0.0
01 23:15 E 28 G 32 0.75 Fog/Mist and Windy OVC005 21 20.1 96% 4 29.57 0.0
01 22:55 E 28 G 31 1.25 Fog/Mist and Windy OVC005 20.5 19.4 96% 4 29.57 0.0
01 22:35 E 24 G 30 1.50 Fog/Mist and Breezy OVC005 20.3 19.2 96% 4 29.58 0.0
01 22:15 E 28 G 32 1.75 Fog/Mist and Windy OVC005 20.3 19.2 96% 3 29.58 0.0
01 21:55 E 28 G 32 1.75 Fog/Mist and Windy OVC005 20.3 19.2 20.3 18.9 96% 3 29.59 0.0
01 21:35 E 24 1.25 Fog/Mist and Breezy OVC005 20.3 19.2 96% 4 29.59 0.0
01 21:15 E 26 G 32 0.75 Fog/Mist and Windy OVC005 20.1 18.9 95% 3 29.59 0.0
01 20:55 E 28 0.75 Fog/Mist and Windy OVC007 19.9 18.5 94% 3 29.6 0.0
01 20:35 E 25 0.75 Fog/Mist and Breezy OVC007 19.9 18.5 94% 3 29.61 0.0
01 20:15 E 23 1.25 Fog/Mist and Breezy OVC007 19.9 18.5 94% 4 29.62 0.0
01 19:55 E 30 0.75 Fog/Mist and Windy OVC007 19.4 18.1 95% 2 29.62 0.0
01 19:35 E 30 G 33 0.75 Fog/Mist and Windy OVC007 19.6 18.1 94% 2 29.62 0.0
01 19:15 E 24 1.00 Fog/Mist and Breezy OVC007 19.4 18 94% 3 29.63 0.0
01 18:55 E 25 1.00 Fog/Mist and Breezy OVC007 19.4 17.6 93% 3 29.64 0.0
01 18:35 E 25 G 30 1.00 Fog/Mist and Breezy OVC007 19.4 17.6 93% 3 29.65 0.0
01 18:15 E 25 0.75 Fog/Mist and Breezy OVC007 19.2 17.4 93% 3 29.65 0.0
01 17:55 E 26 G 32 0.75 Fog/Mist and Windy OVC007 19.2 17.4 93% 2 29.65 0.0
01 17:35 E 25 1.25 Fog/Mist and Breezy OVC007 19.4 17.2 91% 3 29.66 0.0
01 17:15 E 30 1.00 Fog/Mist and Windy OVC007 19.2 17.1 91% 1 29.68 0.0
01 16:55 E 26 G 32 1.00 Fog/Mist and Windy OVC007 19.2 17.1 91% 2 29.69 0.0
01 16:35 E 30 G 36 0.75 Fog/Mist and Windy OVC007 19 16.7 91% 1 29.69 0.0
01 16:15 E 30 0.75 Fog/Mist and Windy OVC007 19.2 16.9 91% 1 29.7 0.0
01 15:55 E 32 0.50 Freezing Fog and Windy OVC007 19.2 16.7 20.3 15.3 90% 1 29.7 0.0
01 15:35 E 31 0.50 Freezing Fog and Windy OVC007 18.7 16.7 92% 0 29.71 0.0
01 15:15 E 29 G 36 0.50 Freezing Fog and Windy OVC007 19 16.7 91% 1 29.72 0.0
01 14:55 E 32 G 37 1.00 Fog/Mist and Windy OVC007 19 16.5 90% 1 29.72 0.0
01 14:35 E 35 0.75 Fog/Mist and Windy OVC007 18.9 16.3 90% -0 29.73 0.0
01 14:15 E 32 0.75 Fog/Mist and Windy OVC007 19.4 17.2 91% 1 29.73 0.0
01 13:55 E 29 0.75 Fog/Mist and Windy OVC007 19.8 17.4 91% 2 29.74 0.0
01 13:35 E 29 G 36 1.00 Fog/Mist and Windy OVC007 20.1 18 91% 3 29.75 0.0
01 13:15 E 30 G 35 1.25 Fog/Mist and Windy OVC007 20.3 18.1 91% 3 29.75 0.0
01 12:55 E 30 1.25 Fog/Mist and Windy OVC007 20.1 17.6 90% 3 29.75 0.0
01 12:35 E 28 1.50 Fog/Mist and Windy OVC007 19.4 17.2 91% 2 29.77 0.0
01 12:15 E 28 1.50 Fog/Mist and Windy OVC007 19 16.7 91% 2 29.77 0.0
01 11:55 E 26 G 33 1.75 Fog/Mist and Windy BKN007 18.7 16.3 91% 1 29.78 0.0
01 11:35 E 28 G 31 1.50 Fog/Mist and Windy VV007 18.1 15.8 91% 0 29.78 0.0
Date Time (akdt) Wind (mph) Vis. (mi.) Weather Sky Cond. Air Dwpt Max. Min. Relative Humidity Wind Chill (°F) Heat Index (°F) altimeter (in) sea level (mb) 1 hr 3 hr 6 hr
6 hour
Temperature (ºF) Pressure Precipitation (in)